Time;durP1;ratioP1;P1;durP2;ratioP2;P2;SDS_P1;SDS_P2;PMS_P1;PMS_P2;Temp;Humidity;BMP_temperature;BMP_pressure;BME280_temperature;BME280_humidity;BME280_pressure;Samples;Min_cycle;Max_cycle;Signal;HPM_P1;HPM_P2
2023/06/22 00:01:25;;;;;;;20.30;18.20;;;19.20;99.90;;;;;;4991786;28;20037;-84
2023/06/22 00:03:52;;;;;;;19.67;16.55;;;19.10;99.90;;;;;;5009240;28;20045;-85
2023/06/22 00:06:19;;;;;;;22.20;18.77;;;19.20;99.90;;;;;;4992358;28;20034;-85
2023/06/22 00:08:45;;;;;;;21.27;16.88;;;19.10;99.90;;;;;;5025024;28;20042;-86
2023/06/22 00:11:14;;;;;;;20.13;16.77;;;19.10;99.90;;;;;;4976001;28;20049;-85
2023/06/22 00:13:40;;;;;;;18.92;16.90;;;19.10;99.90;;;;;;4975865;28;20032;-86
2023/06/22 00:16:08;;;;;;;20.33;16.95;;;19.10;99.90;;;;;;4976731;28;20377;-84
2023/06/22 00:18:35;;;;;;;20.15;17.45;;;19.10;99.90;;;;;;5007878;28;20038;-85
2023/06/22 00:21:01;;;;;;;22.67;18.27;;;19.10;99.90;;;;;;4992074;28;20034;-86
2023/06/22 00:23:27;;;;;;;23.73;18.02;;;19.00;99.90;;;;;;4975350;28;20046;-85
2023/06/22 00:25:55;;;;;;;19.77;16.90;;;19.00;99.90;;;;;;4975532;28;20454;-85
2023/06/22 00:28:21;;;;;;;20.48;17.65;;;19.00;99.90;;;;;;4990531;28;20053;-85
2023/06/22 00:30:49;;;;;;;23.20;19.27;;;19.00;99.90;;;;;;4991623;28;20046;-86
2023/06/22 00:33:16;;;;;;;21.35;18.00;;;18.90;99.90;;;;;;4974560;28;20050;-86
2023/06/22 00:35:43;;;;;;;21.45;18.08;;;18.90;99.90;;;;;;4990178;28;20034;-85
2023/06/22 00:38:11;;;;;;;21.15;17.85;;;19.00;99.90;;;;;;4973956;28;20037;-85
2023/06/22 00:40:38;;;;;;;22.30;18.05;;;18.90;99.90;;;;;;4990586;28;20041;-84
2023/06/22 00:43:05;;;;;;;21.55;17.02;;;18.90;99.90;;;;;;4975771;28;20755;-84
2023/06/22 00:45:32;;;;;;;19.70;17.60;;;18.90;99.90;;;;;;5024462;28;20026;-85
2023/06/22 00:48:01;;;;;;;20.02;16.48;;;18.90;99.90;;;;;;4992420;28;20056;-85
2023/06/22 00:50:33;;;;;;;17.17;14.32;;;18.80;99.90;;;;;;4992077;28;20033;-86
2023/06/22 00:53:07;;;;;;;14.52;13.02;;;18.70;99.90;;;;;;4975435;28;20049;-85
2023/06/22 00:55:43;;;;;;;15.32;13.82;;;18.60;99.90;;;;;;4977262;28;20171;-85
2023/06/22 00:58:11;;;;;;;15.07;13.48;;;18.40;99.90;;;;;;4991667;28;20026;-85
2023/06/22 01:00:39;;;;;;;16.10;14.50;;;18.30;99.90;;;;;;4989883;28;20369;-85
2023/06/22 01:03:08;;;;;;;17.58;15.70;;;18.30;99.90;;;;;;4969594;28;20097;-86
2023/06/22 01:05:36;;;;;;;17.27;15.48;;;18.30;99.90;;;;;;4970712;28;20165;-86
2023/06/22 01:08:07;;;;;;;17.20;15.40;;;18.10;99.90;;;;;;4985356;28;20081;-86
2023/06/22 01:11:06;;;;;;;22.58;17.67;;;18.00;99.90;;;;;;4986072;28;20406;-86
2023/06/22 01:13:48;;;;;;;19.10;16.92;;;17.90;99.90;;;;;;4969634;28;20101;-85
2023/06/22 01:16:29;;;;;;;20.92;18.13;;;17.80;99.90;;;;;;4970127;28;20042;-84
2023/06/22 01:19:00;;;;;;;19.05;16.42;;;17.80;99.90;;;;;;4953802;28;20042;-85
2023/06/22 01:21:31;;;;;;;18.58;16.88;;;17.80;99.90;;;;;;4986420;28;20109;-85
2023/06/22 01:24:24;;;;;;;19.77;17.88;;;17.70;99.90;;;;;;4985648;28;20045;-85
2023/06/22 01:27:02;;;;;;;19.50;17.50;;;17.70;99.90;;;;;;4985027;28;20050;-86
2023/06/22 01:29:30;;;;;;;20.75;18.60;;;17.60;99.90;;;;;;4980632;28;20037;-87
2023/06/22 01:31:57;;;;;;;18.08;16.17;;;17.60;99.90;;;;;;4990736;28;20057;-82
2023/06/22 01:34:24;;;;;;;19.45;17.30;;;17.60;99.90;;;;;;4975245;28;20084;-85
2023/06/22 01:36:52;;;;;;;19.58;17.45;;;17.60;99.90;;;;;;5005887;28;20030;-88
2023/06/22 01:39:22;;;;;;;20.55;17.63;;;17.60;99.90;;;;;;4975968;28;20065;-85
2023/06/22 01:41:57;;;;;;;34.78;20.02;;;17.60;99.90;;;;;;4971634;28;20045;-86
2023/06/22 01:44:25;;;;;;;31.75;18.60;;;17.60;99.90;;;;;;4994122;28;20089;-86
2023/06/22 01:46:53;;;;;;;19.88;17.77;;;17.60;99.90;;;;;;4986522;28;20053;-87
2023/06/22 01:49:19;;;;;;;30.05;19.15;;;17.60;99.90;;;;;;4977357;28;20062;-86
2023/06/22 01:51:51;;;;;;;20.98;18.83;;;17.50;99.90;;;;;;4947660;28;20046;-86
2023/06/22 01:54:18;;;;;;;20.05;17.95;;;17.40;99.90;;;;;;5004412;28;20057;-87
2023/06/22 01:56:46;;;;;;;20.00;18.10;;;17.40;99.90;;;;;;4942392;28;20034;-86
2023/06/22 01:59:37;;;;;;;18.95;17.05;;;17.40;99.90;;;;;;4989106;28;20033;-86
2023/06/22 02:02:10;;;;;;;19.40;17.40;;;17.40;99.90;;;;;;4972963;28;20069;-86
2023/06/22 02:04:46;;;;;;;21.20;19.10;;;17.50;99.90;;;;;;4989223;28;20133;-86
2023/06/22 02:07:13;;;;;;;;;;;17.50;99.90;;;;;;4987233;28;20038;-89
2023/06/22 02:09:45;;;;;;;18.45;16.55;;;17.40;99.90;;;;;;5004408;28;19953;-87
2023/06/22 02:12:16;;;;;;;18.23;16.38;;;17.40;99.90;;;;;;5004907;28;20041;-87
2023/06/22 02:14:43;;;;;;;19.27;17.25;;;17.50;99.90;;;;;;5005242;28;20026;-86
2023/06/22 02:17:10;;;;;;;16.90;15.23;;;17.40;99.90;;;;;;5004853;28;20409;-87
2023/06/22 02:19:37;;;;;;;18.23;16.40;;;17.40;99.90;;;;;;5004947;28;20076;-86
2023/06/22 02:22:04;;;;;;;21.08;17.90;;;17.30;99.90;;;;;;4984910;28;20026;-88
2023/06/22 02:24:33;;;;;;;16.23;14.52;;;17.30;99.90;;;;;;4985259;28;20033;-86
2023/06/22 02:27:01;;;;;;;19.88;17.88;;;17.30;99.90;;;;;;4968964;28;20026;-88
2023/06/22 02:29:28;;;;;;;19.15;17.25;;;17.40;99.90;;;;;;4969223;28;20333;-87
2023/06/22 02:31:54;;;;;;;18.80;17.00;;;17.30;99.90;;;;;;5002359;28;20026;-86
2023/06/22 02:34:21;;;;;;;21.15;18.65;;;17.30;99.90;;;;;;4952409;28;20038;-86
2023/06/22 02:36:52;;;;;;;18.50;16.52;;;17.30;99.90;;;;;;4974458;28;20030;-87
2023/06/22 02:39:25;;;;;;;20.50;17.13;;;17.30;99.90;;;;;;4972335;28;20036;-86
2023/06/22 02:41:52;;;;;;;18.23;16.52;;;17.30;99.90;;;;;;5004887;28;20058;-86
2023/06/22 02:44:19;;;;;;;19.15;17.27;;;17.30;99.90;;;;;;4988412;28;20034;-86
2023/06/22 02:46:47;;;;;;;18.08;16.35;;;17.30;99.90;;;;;;4955930;28;20050;-86
2023/06/22 02:49:15;;;;;;;19.33;17.42;;;17.30;99.90;;;;;;4988607;28;20054;-86
2023/06/22 02:51:49;;;;;;;18.48;16.73;;;17.30;99.90;;;;;;4953744;28;20038;-86
2023/06/22 02:54:18;;;;;;;17.50;15.90;;;17.20;99.90;;;;;;4937884;28;20773;-87
2023/06/22 02:56:48;;;;;;;16.25;14.65;;;17.20;99.90;;;;;;4953285;28;20042;-87
2023/06/22 02:59:15;;;;;;;17.67;16.02;;;17.10;99.90;;;;;;4953098;28;20042;-87
2023/06/22 03:01:42;;;;;;;14.40;13.10;;;17.10;99.90;;;;;;4937641;28;20037;-87
2023/06/22 03:04:25;;;;;;;15.70;14.38;;;17.10;99.90;;;;;;4970775;28;20045;-86
2023/06/22 03:06:52;;;;;;;16.42;14.93;;;17.10;99.90;;;;;;4975102;28;20129;-86
2023/06/22 03:09:20;;;;;;;17.33;15.70;;;17.10;99.90;;;;;;4950833;28;20205;-86
2023/06/22 03:11:46;;;;;;;17.05;15.55;;;17.10;99.90;;;;;;4968116;28;20046;-85
2023/06/22 03:14:14;;;;;;;16.55;15.10;;;17.00;99.90;;;;;;4967051;28;20065;-87
2023/06/22 03:16:46;;;;;;;17.05;15.40;;;17.10;99.90;;;;;;4956348;28;20037;-87
2023/06/22 03:19:12;;;;;;;29.58;16.08;;;17.00;99.90;;;;;;4986868;28;20034;-86
2023/06/22 03:21:40;;;;;;;17.15;15.52;;;16.90;99.90;;;;;;4973450;28;20045;-86
2023/06/22 03:24:07;;;;;;;16.52;15.02;;;16.90;99.90;;;;;;4990622;28;20113;-86
2023/06/22 03:26:34;;;;;;;15.43;13.93;;;16.90;99.90;;;;;;4974592;28;20105;-86
2023/06/22 03:29:03;;;;;;;16.58;15.15;;;16.80;99.90;;;;;;4990637;28;20481;-88
2023/06/22 03:31:32;;;;;;;16.23;14.85;;;16.80;99.90;;;;;;4970916;28;20030;-87
2023/06/22 03:33:58;;;;;;;15.30;13.98;;;16.80;99.90;;;;;;4955407;28;20061;-86
2023/06/22 03:36:26;;;;;;;15.95;14.55;;;16.80;99.90;;;;;;4971106;28;20417;-86
2023/06/22 03:38:52;;;;;;;16.52;15.10;;;16.80;99.90;;;;;;4954612;28;20330;-87
2023/06/22 03:41:19;;;;;;;17.58;16.08;;;16.80;99.90;;;;;;4955581;28;20078;-86
2023/06/22 03:43:49;;;;;;;17.10;15.57;;;16.80;99.90;;;;;;4958794;28;20042;-86
2023/06/22 03:46:19;;;;;;;17.67;15.90;;;16.80;99.90;;;;;;4990579;28;20040;-86
2023/06/22 03:48:46;;;;;;;18.38;16.83;;;16.80;99.90;;;;;;4974885;28;20041;-86
2023/06/22 03:51:12;;;;;;;16.05;14.60;;;16.80;99.90;;;;;;4974171;28;20443;-89
2023/06/22 03:53:38;;;;;;;17.73;16.15;;;16.70;99.90;;;;;;4969371;28;20042;-86
2023/06/22 03:56:07;;;;;;;18.13;16.45;;;16.70;99.90;;;;;;4970711;28;20408;-87
2023/06/22 03:58:36;;;;;;;16.40;15.02;;;16.70;99.90;;;;;;4986557;28;20022;-87
2023/06/22 04:01:02;;;;;;;16.05;14.75;;;16.70;99.90;;;;;;4954704;28;20038;-89
2023/06/22 04:03:28;;;;;;;14.48;13.27;;;16.70;99.90;;;;;;4970753;28;20057;-86
2023/06/22 04:05:54;;;;;;;16.02;14.73;;;16.70;99.90;;;;;;4954527;28;20120;-87
2023/06/22 04:08:20;;;;;;;14.57;13.38;;;16.60;99.90;;;;;;4984525;28;20062;-86
2023/06/22 04:10:46;;;;;;;14.27;13.07;;;16.60;99.90;;;;;;4973480;28;20048;-86
2023/06/22 04:13:13;;;;;;;14.45;13.25;;;16.60;99.90;;;;;;4953681;28;20049;-86
2023/06/22 04:15:39;;;;;;;16.30;14.93;;;16.60;99.90;;;;;;5003091;28;20321;-87
2023/06/22 04:18:06;;;;;;;16.17;14.88;;;16.60;99.90;;;;;;4969822;28;20045;-91
2023/06/22 04:20:32;;;;;;;14.40;13.10;;;16.50;99.90;;;;;;4953967;28;20038;-85
2023/06/22 04:22:58;;;;;;;14.50;13.18;;;16.50;99.90;;;;;;4985800;28;20084;-85
2023/06/22 04:25:27;;;;;;;16.42;15.05;;;16.60;99.90;;;;;;4954429;28;20035;-86
2023/06/22 04:27:54;;;;;;;17.02;15.52;;;16.60;99.90;;;;;;4987189;28;20039;-86
2023/06/22 04:30:20;;;;;;;12.13;11.10;;;16.50;99.90;;;;;;5003692;28;20109;-86
2023/06/22 04:32:56;;;;;;;14.77;13.57;;;16.50;99.90;;;;;;4983417;28;20058;-87
2023/06/22 04:35:22;;;;;;;16.75;15.35;;;16.50;99.90;;;;;;4965236;28;20460;-87
2023/06/22 04:37:49;;;;;;;14.10;12.80;;;16.60;99.90;;;;;;5000163;28;20084;-87
2023/06/22 04:40:16;;;;;;;14.68;13.35;;;16.50;99.90;;;;;;4998371;28;20033;-86
2023/06/22 04:42:52;;;;;;;16.67;14.95;;;16.60;99.90;;;;;;4988582;28;20271;-87
2023/06/22 04:45:22;;;;;;;17.25;15.55;;;16.60;99.90;;;;;;4999095;28;20032;-86
2023/06/22 04:47:48;;;;;;;17.33;15.60;;;16.70;99.90;;;;;;4990110;28;20420;-87
2023/06/22 04:50:17;;;;;;;21.05;18.77;;;16.70;99.90;;;;;;4990256;28;20096;-88
2023/06/22 04:52:45;;;;;;;20.63;18.45;;;16.70;99.90;;;;;;4990023;28;20033;-87
2023/06/22 04:55:19;;;;;;;20.90;18.70;;;16.70;99.90;;;;;;4973735;28;20121;-88
2023/06/22 04:57:48;;;;;;;22.60;19.70;;;16.70;99.90;;;;;;5003728;28;20076;-87
2023/06/22 05:00:17;;;;;;;25.13;20.15;;;16.80;99.90;;;;;;5002804;28;20025;-88
2023/06/22 05:02:47;;;;;;;27.70;22.23;;;16.80;99.90;;;;;;4953978;28;20038;-87
2023/06/22 05:05:13;;;;;;;25.95;23.05;;;16.90;99.90;;;;;;4982793;28;20038;-88
2023/06/22 05:07:43;;;;;;;28.70;24.30;;;16.90;99.90;;;;;;4973914;28;20033;-89
2023/06/22 05:10:12;;;;;;;26.75;23.17;;;16.90;99.90;;;;;;4987534;28;20128;-87
2023/06/22 05:12:39;;;;;;;29.35;24.30;;;16.90;99.90;;;;;;4970807;28;20038;-87
2023/06/22 05:15:07;;;;;;;28.40;24.08;;;16.90;99.90;;;;;;4969470;28;20068;-87
2023/06/22 05:17:33;;;;;;;26.02;23.33;;;16.90;99.90;;;;;;4954862;28;20037;-86
2023/06/22 05:20:00;;;;;;;28.40;24.60;;;16.90;99.90;;;;;;4987976;28;20037;-87
2023/06/22 05:22:29;;;;;;;27.40;24.48;;;17.00;99.90;;;;;;4995618;28;20034;-87
2023/06/22 05:24:57;;;;;;;25.58;22.85;;;17.00;99.90;;;;;;4986993;28;20065;-86
2023/06/22 05:27:23;;;;;;;23.38;20.73;;;17.00;99.90;;;;;;4971731;28;20038;-87
2023/06/22 05:29:50;;;;;;;25.23;22.52;;;17.10;99.90;;;;;;4981331;28;20041;-86
2023/06/22 05:32:16;;;;;;;28.98;24.00;;;17.20;99.90;;;;;;4998069;28;20030;-85
2023/06/22 05:34:43;;;;;;;26.70;23.75;;;17.20;99.90;;;;;;4935609;28;20042;-87
2023/06/22 05:37:10;;;;;;;27.30;23.35;;;17.30;99.90;;;;;;4984098;28;20042;-87
2023/06/22 05:39:39;;;;;;;32.67;24.25;;;17.30;99.90;;;;;;4951859;28;20057;-87
2023/06/22 05:42:06;;;;;;;29.98;24.40;;;17.30;99.90;;;;;;4983545;28;20034;-88
2023/06/22 05:44:33;;;;;;;24.88;22.27;;;17.40;99.90;;;;;;4949650;28;20097;-88
2023/06/22 05:46:59;;;;;;;23.20;20.70;;;17.40;99.90;;;;;;4966916;28;20472;-93
2023/06/22 05:49:32;;;;;;;25.45;22.65;;;17.50;99.90;;;;;;4999453;28;20065;-87
2023/06/22 05:51:59;;;;;;;26.70;23.88;;;17.50;99.90;;;;;;4935274;28;20038;-87
2023/06/22 05:54:27;;;;;;;27.52;23.45;;;17.60;99.90;;;;;;4981892;28;20041;-88
2023/06/22 05:56:53;;;;;;;29.13;24.92;;;17.60;99.90;;;;;;4950862;28;20290;-86
2023/06/22 05:59:21;;;;;;;26.65;23.38;;;17.60;99.90;;;;;;4962430;28;20034;-89
2023/06/22 06:01:50;;;;;;;27.75;23.27;;;17.70;99.90;;;;;;4950151;28;20031;-90
2023/06/22 06:04:20;;;;;;;31.33;24.90;;;17.70;99.90;;;;;;4961725;28;20128;-89
2023/06/22 06:06:47;;;;;;;31.98;24.45;;;17.80;99.90;;;;;;4986550;28;20041;-87
2023/06/22 06:09:17;;;;;;;29.60;24.20;;;17.80;99.90;;;;;;4985647;28;20054;-88
2023/06/22 06:11:43;;;;;;;26.58;23.65;;;17.90;99.90;;;;;;4966824;28;20109;-89
2023/06/22 06:14:09;;;;;;;26.77;23.95;;;17.90;99.90;;;;;;4983466;28;20042;-88
2023/06/22 06:16:35;;;;;;;30.20;24.95;;;17.90;99.90;;;;;;4984004;28;20034;-88
2023/06/22 06:19:02;;;;;;;29.90;25.63;;;18.10;99.90;;;;;;4952369;28;20026;-90
2023/06/22 06:21:28;;;;;;;30.58;25.15;;;18.10;99.90;;;;;;4966603;28;20037;-89
2023/06/22 06:23:54;;;;;;;29.50;25.60;;;18.20;99.90;;;;;;4950785;28;20034;-89
2023/06/22 06:26:27;;;;;;;29.05;25.90;;;18.30;99.90;;;;;;4982560;28;20138;-88
2023/06/22 06:28:55;;;;;;;30.17;22.88;;;18.40;99.90;;;;;;4965527;28;20046;-88
2023/06/22 06:31:22;;;;;;;32.58;23.67;;;18.50;99.90;;;;;;4986060;28;20096;-89
2023/06/22 06:33:48;;;;;;;25.17;21.55;;;18.50;99.90;;;;;;4954055;28;20041;-90
2023/06/22 06:36:15;;;;;;;25.73;21.42;;;18.60;99.90;;;;;;4980164;28;20030;-89
2023/06/22 06:38:41;;;;;;;23.35;19.65;;;18.70;99.90;;;;;;4972391;28;20334;-89
2023/06/22 06:41:07;;;;;;;22.40;19.30;;;18.70;99.90;;;;;;4948236;28;20026;-89
2023/06/22 06:43:33;;;;;;;21.42;18.83;;;18.80;99.90;;;;;;4996425;28;20233;-88
2023/06/22 06:45:59;;;;;;;22.27;19.88;;;18.80;99.90;;;;;;4964272;28;20334;-89
2023/06/22 06:48:33;;;;;;;23.50;19.23;;;18.80;99.90;;;;;;4918012;28;20041;-89
2023/06/22 06:50:59;;;;;;;23.73;20.40;;;18.90;99.90;;;;;;4981279;28;20034;-89
2023/06/22 06:53:25;;;;;;;25.02;19.98;;;18.90;99.90;;;;;;4966935;28;20048;-89
2023/06/22 06:55:51;;;;;;;22.88;18.92;;;19.00;99.90;;;;;;4967029;28;20037;-89
2023/06/22 06:58:17;;;;;;;21.88;19.52;;;19.10;99.90;;;;;;4967364;28;20065;-90
2023/06/22 07:00:43;;;;;;;22.08;19.63;;;19.20;99.90;;;;;;4983636;28;20451;-89
2023/06/22 07:03:12;;;;;;;22.40;18.58;;;19.20;99.90;;;;;;4967310;28;20468;-92
2023/06/22 07:05:38;;;;;;;24.75;19.23;;;19.30;99.90;;;;;;4963950;28;20137;-89
2023/06/22 07:08:05;;;;;;;23.30;16.83;;;19.40;99.90;;;;;;4979660;28;20065;-89
2023/06/22 07:10:32;;;;;;;19.73;17.15;;;19.40;99.90;;;;;;4947813;28;20398;-89
2023/06/22 07:12:58;;;;;;;19.27;16.55;;;19.40;99.90;;;;;;4932214;28;20046;-89
2023/06/22 07:15:24;;;;;;;19.55;17.08;;;19.50;99.90;;;;;;4985842;28;20076;-90
2023/06/22 07:17:52;;;;;;;20.17;17.02;;;19.50;99.90;;;;;;4983027;28;20030;-90
2023/06/22 07:20:19;;;;;;;19.90;16.65;;;19.60;99.90;;;;;;4999817;28;20128;-90
2023/06/22 07:22:45;;;;;;;20.27;18.08;;;19.70;99.90;;;;;;4983166;28;20069;-90
2023/06/22 07:25:14;;;;;;;19.48;17.33;;;19.70;99.90;;;;;;4983210;28;20030;-89
2023/06/22 07:27:45;;;;;;;22.33;18.27;;;19.90;99.90;;;;;;4951531;28;20409;-90
2023/06/22 07:30:12;;;;;;;18.48;16.42;;;19.90;99.90;;;;;;4983600;28;20037;-89
2023/06/22 07:32:41;;;;;;;19.17;16.40;;;20.00;99.90;;;;;;4983391;28;20072;-90
2023/06/22 07:35:08;;;;;;;18.55;15.98;;;20.10;99.90;;;;;;4967102;28;20172;-90
2023/06/22 07:37:34;;;;;;;18.45;15.25;;;20.20;99.90;;;;;;4982349;28;20428;-91
2023/06/22 07:40:01;;;;;;;20.15;15.30;;;20.30;99.90;;;;;;4985185;28;20031;-92
2023/06/22 07:42:27;;;;;;;17.55;15.68;;;20.40;99.90;;;;;;4963341;28;20030;-90
2023/06/22 07:44:54;;;;;;;19.33;15.05;;;20.50;99.90;;;;;;4967967;28;20429;-90
2023/06/22 07:47:25;;;;;;;20.27;17.55;;;20.60;99.90;;;;;;4963509;28;20417;-90
2023/06/22 07:49:51;;;;;;;21.05;17.15;;;20.60;99.90;;;;;;4947971;28;20290;-90
2023/06/22 07:52:17;;;;;;;24.90;18.00;;;20.70;99.90;;;;;;4979456;28;20274;-91
2023/06/22 07:54:46;;;;;;;20.92;16.92;;;20.70;99.90;;;;;;4963090;28;20042;-91
2023/06/22 07:57:12;;;;;;;19.88;17.77;;;20.80;99.90;;;;;;4967079;28;20370;-91
2023/06/22 07:59:38;;;;;;;18.15;15.60;;;20.90;99.90;;;;;;4967340;28;20085;-90
2023/06/22 08:02:05;;;;;;;16.98;15.20;;;21.00;99.90;;;;;;4967273;28;20302;-91
2023/06/22 08:04:33;;;;;;;19.30;17.13;;;21.10;99.90;;;;;;4966174;28;20041;-91
2023/06/22 08:07:03;;;;;;;19.85;16.45;;;21.20;99.90;;;;;;4948840;28;20038;-91
2023/06/22 08:09:31;;;;;;;17.52;14.77;;;21.30;99.90;;;;;;4953406;28;20089;-90
2023/06/22 08:11:58;;;;;;;17.95;14.50;;;21.30;99.90;;;;;;4984055;28;20041;-90
2023/06/22 08:14:29;;;;;;;18.52;15.25;;;21.40;99.90;;;;;;4948765;28;20058;-91
2023/06/22 08:16:55;;;;;;;18.67;16.10;;;21.50;99.90;;;;;;4948932;28;20426;-90
2023/06/22 08:19:21;;;;;;;19.92;17.08;;;21.70;99.90;;;;;;4956182;28;20043;-90
2023/06/22 08:21:47;;;;;;;20.23;18.13;;;21.80;99.90;;;;;;4942211;28;20030;-90
2023/06/22 08:24:13;;;;;;;22.25;16.17;;;21.80;99.90;;;;;;4963525;28;20039;-91
2023/06/22 08:26:39;;;;;;;18.27;15.15;;;21.90;99.90;;;;;;4947769;28;20035;-91
2023/06/22 08:29:05;;;;;;;17.77;15.13;;;21.90;99.90;;;;;;4948064;28;20035;-91
2023/06/22 08:31:34;;;;;;;19.48;15.35;;;22.00;99.90;;;;;;4967045;28;20425;-91
2023/06/22 08:34:01;;;;;;;21.25;17.48;;;22.00;99.90;;;;;;4983544;28;20107;-92
2023/06/22 08:36:32;;;;;;;19.33;14.93;;;22.10;99.90;;;;;;5000038;28;20032;-92
2023/06/22 08:39:01;;;;;;;16.15;13.25;;;22.20;99.90;;;;;;4965916;28;20362;-93
2023/06/22 08:41:27;;;;;;;19.25;14.95;;;22.30;99.90;;;;;;4983241;28;20109;-93
2023/06/22 08:43:53;;;;;;;14.75;12.50;;;22.40;99.90;;;;;;4949785;28;20039;-92
2023/06/22 08:46:23;;;;;;;18.88;15.02;;;22.50;99.90;;;;;;4947857;28;20054;-92
2023/06/22 08:48:50;;;;;;;17.65;14.57;;;22.60;99.90;;;;;;4931253;28;20722;-92
2023/06/22 08:51:17;;;;;;;14.93;12.45;;;22.60;99.90;;;;;;4947404;28;20117;-92
2023/06/22 08:53:44;;;;;;;12.68;11.13;;;22.70;99.90;;;;;;4932060;28;20141;-92
2023/06/22 08:56:11;;;;;;;14.93;11.15;;;22.90;99.90;;;;;;4931493;28;20054;-92
2023/06/22 08:58:39;;;;;;;14.80;12.57;;;23.00;99.90;;;;;;4963036;28;20074;-91
2023/06/22 09:01:05;;;;;;;13.55;10.88;;;23.10;99.90;;;;;;4931889;28;20034;-92
2023/06/22 09:03:32;;;;;;;15.40;11.82;;;23.10;99.90;;;;;;4931435;28;20040;-92
2023/06/22 09:05:59;;;;;;;13.48;11.98;;;23.20;99.90;;;;;;4948201;28;20042;-92
2023/06/22 09:08:25;;;;;;;14.35;11.82;;;23.20;99.90;;;;;;4930958;28;20106;-93
2023/06/22 09:10:53;;;;;;;16.42;12.88;;;23.30;99.90;;;;;;4932010;28;20121;-91
2023/06/22 09:13:19;;;;;;;12.80;11.23;;;23.40;99.90;;;;;;4922917;28;20383;-91
2023/06/22 09:15:47;;;;;;;14.68;12.30;;;23.40;99.90;;;;;;4982712;28;20093;-91
2023/06/22 09:18:16;;;;;;;13.05;10.52;;;23.40;99.90;;;;;;4950644;28;20299;-91
2023/06/22 09:20:45;;;;;;;12.68;8.52;;;23.50;99.90;;;;;;4983348;28;20043;-92
2023/06/22 09:23:11;;;;;;;12.38;9.93;;;23.60;99.90;;;;;;4983024;28;20022;-92
2023/06/22 09:25:37;;;;;;;12.50;10.00;;;23.80;99.90;;;;;;4967078;28;20310;-91
2023/06/22 09:28:03;;;;;;;11.75;8.82;;;23.90;99.90;;;;;;4966992;28;20041;-92
2023/06/22 09:30:29;;;;;;;13.25;8.55;;;23.90;99.90;;;;;;4950768;28;20073;-92
2023/06/22 09:32:55;;;;;;;13.70;9.15;;;23.90;99.90;;;;;;4935330;28;20475;-92
2023/06/22 09:35:21;;;;;;;12.52;10.20;;;24.00;99.90;;;;;;4946918;28;20105;-92
2023/06/22 09:37:47;;;;;;;12.40;8.77;;;24.10;99.90;;;;;;4931411;28;20039;-92
2023/06/22 09:40:16;;;;;;;10.70;7.93;;;24.20;99.90;;;;;;4931653;28;20041;-94
2023/06/22 09:42:42;;;;;;;11.27;8.55;;;24.30;99.90;;;;;;4932154;28;20062;-91
2023/06/22 09:45:09;;;;;;;9.80;7.30;;;24.40;99.90;;;;;;4951284;28;20030;-92
2023/06/22 09:47:35;;;;;;;17.00;10.10;;;24.50;99.90;;;;;;4950153;28;20117;-93
2023/06/22 09:50:03;;;;;;;11.40;9.35;;;24.60;99.90;;;;;;4950623;28;20057;-91
2023/06/22 09:52:30;;;;;;;12.45;9.52;;;24.60;99.90;;;;;;4950764;28;20043;-91
2023/06/22 09:54:56;;;;;;;13.02;9.40;;;24.70;99.90;;;;;;4981628;28;20038;-90
2023/06/22 09:57:22;;;;;;;10.25;7.97;;;24.70;99.90;;;;;;4980021;28;20026;-91
2023/06/22 09:59:48;;;;;;;14.82;8.38;;;24.80;99.90;;;;;;4918538;28;20134;-91
2023/06/22 10:02:17;;;;;;;10.45;7.43;;;24.90;99.90;;;;;;4960647;28;20035;-92
2023/06/22 10:04:43;;;;;;;11.15;8.25;;;25.10;99.90;;;;;;4946350;28;20414;-91
2023/06/22 10:07:09;;;;;;;11.38;7.07;;;25.20;99.90;;;;;;4946674;28;20034;-92
2023/06/22 10:09:35;;;;;;;10.48;7.00;;;25.20;99.90;;;;;;4945788;28;20126;-91
2023/06/22 10:12:01;;;;;;;9.48;7.45;;;25.20;99.90;;;;;;4946231;28;20073;-92
2023/06/22 10:14:29;;;;;;;11.38;7.90;;;25.40;99.90;;;;;;4944009;28;20026;-91
2023/06/22 10:16:55;;;;;;;10.02;6.90;;;25.30;99.90;;;;;;4946562;28;20433;-92
2023/06/22 10:19:21;;;;;;;11.18;7.72;;;25.40;99.90;;;;;;4946222;28;20156;-91
2023/06/22 10:21:47;;;;;;;13.73;7.32;;;25.30;99.90;;;;;;4916175;28;20508;-91
2023/06/22 10:24:13;;;;;;;10.75;8.52;;;25.40;99.90;;;;;;4929958;28;20517;-91
2023/06/22 10:26:39;;;;;;;9.35;7.10;;;25.50;99.90;;;;;;4965281;28;20033;-93
2023/06/22 10:29:05;;;;;;;10.15;7.13;;;25.50;99.90;;;;;;4965446;28;20026;-90
2023/06/22 10:31:32;;;;;;;9.85;7.20;;;25.50;99.90;;;;;;4964335;28;20476;-90
2023/06/22 10:33:58;;;;;;;8.80;6.50;;;25.50;99.90;;;;;;4946511;28;20030;-90
2023/06/22 10:36:24;;;;;;;8.57;6.63;;;25.50;99.90;;;;;;4957731;28;20070;-90
2023/06/22 10:38:55;;;;;;;9.00;6.38;;;25.70;99.90;;;;;;4949942;28;20311;-90
2023/06/22 10:41:21;;;;;;;10.20;6.82;;;25.60;99.90;;;;;;4965943;28;20057;-90
2023/06/22 10:43:47;;;;;;;10.93;6.85;;;25.60;99.90;;;;;;4981658;28;20030;-90
2023/06/22 10:46:13;;;;;;;11.90;6.68;;;25.80;99.90;;;;;;4960249;28;20035;-91
2023/06/22 10:48:39;;;;;;;8.93;5.60;;;25.90;99.90;;;;;;4915060;28;20069;-90
2023/06/22 10:51:06;;;;;;;9.05;6.38;;;26.00;99.90;;;;;;4961406;28;20041;-92
2023/06/22 10:53:32;;;;;;;8.95;6.28;;;26.00;99.90;;;;;;4930804;28;20342;-91
2023/06/22 10:55:58;;;;;;;9.32;5.40;;;26.00;99.90;;;;;;4915425;28;20035;-92
2023/06/22 10:58:25;;;;;;;8.02;5.57;;;26.00;99.90;;;;;;4980865;28;20034;-91
2023/06/22 11:00:51;;;;;;;7.68;5.07;;;26.00;99.90;;;;;;4949391;28;20030;-92
2023/06/22 11:03:17;;;;;;;9.00;5.22;;;26.00;99.90;;;;;;4915599;28;20193;-91
2023/06/22 11:05:43;;;;;;;8.27;6.53;;;26.10;99.90;;;;;;4946328;28;20058;-93
2023/06/22 11:08:09;;;;;;;7.38;5.18;;;26.00;99.90;;;;;;4945325;28;20054;-90
2023/06/22 11:10:35;;;;;;;8.32;5.40;;;25.80;99.90;;;;;;4945039;28;20082;-91
2023/06/22 11:13:04;;;;;;;9.45;6.60;;;25.70;99.90;;;;;;4936350;28;20030;-90
2023/06/22 11:15:29;;;;;;;7.78;5.72;;;25.80;99.90;;;;;;4929015;28;20561;-90
2023/06/22 11:17:55;;;;;;;7.25;5.38;;;25.80;99.90;;;;;;4944000;28;20123;-91
2023/06/22 11:20:22;;;;;;;8.27;5.93;;;25.80;99.90;;;;;;4944489;28;20031;-90
2023/06/22 11:22:48;;;;;;;10.05;6.75;;;25.80;99.90;;;;;;4944022;28;20178;-90
2023/06/22 11:25:14;;;;;;;8.15;6.18;;;25.80;99.90;;;;;;4913312;28;20430;-90
2023/06/22 11:27:40;;;;;;;8.32;5.93;;;25.90;99.90;;;;;;4916044;28;20054;-92
2023/06/22 11:30:09;;;;;;;8.98;6.10;;;25.80;99.90;;;;;;4948090;28;20361;-91
2023/06/22 11:32:35;;;;;;;8.93;6.45;;;25.80;99.90;;;;;;4963502;28;20038;-90
2023/06/22 11:35:01;;;;;;;10.50;6.60;;;25.70;99.90;;;;;;4947888;28;20035;-91
2023/06/22 11:37:27;;;;;;;9.43;6.03;;;25.80;99.90;;;;;;4964164;28;20038;-91
2023/06/22 11:39:57;;;;;;;9.65;5.90;;;25.80;99.90;;;;;;4947788;28;20050;-91
2023/06/22 11:42:23;;;;;;;9.50;5.78;;;25.80;99.90;;;;;;4950053;28;20039;-91
2023/06/22 11:44:49;;;;;;;7.38;4.80;;;25.90;99.90;;;;;;4966605;28;20034;-91
2023/06/22 11:47:16;;;;;;;9.65;5.30;;;25.90;99.90;;;;;;4967705;28;20070;-90
2023/06/22 11:49:41;;;;;;;8.20;5.50;;;26.00;99.90;;;;;;4966887;28;20062;-91
2023/06/22 11:52:08;;;;;;;8.73;4.57;;;26.00;99.90;;;;;;4984329;28;20042;-90
2023/06/22 11:54:34;;;;;;;7.30;4.70;;;26.00;99.90;;;;;;4952207;28;20038;-91
2023/06/22 11:56:59;;;;;;;7.50;4.65;;;26.00;99.90;;;;;;4952287;28;20092;-91
2023/06/22 11:59:25;;;;;;;7.15;3.95;;;26.00;99.90;;;;;;4951180;28;20047;-90
2023/06/22 12:01:51;;;;;;;6.55;4.32;;;26.10;99.90;;;;;;4947886;28;20023;-90
2023/06/22 12:04:18;;;;;;;5.55;4.00;;;26.00;99.90;;;;;;4935046;28;20053;-90
2023/06/22 12:06:44;;;;;;;5.53;3.63;;;26.00;99.90;;;;;;4966853;28;20212;-90
2023/06/22 12:09:10;;;;;;;5.93;4.15;;;26.10;99.90;;;;;;4947856;28;20054;-90
2023/06/22 12:11:36;;;;;;;8.38;4.05;;;26.20;99.90;;;;;;4969414;28;20030;-91
2023/06/22 12:14:02;;;;;;;5.70;4.15;;;26.30;99.90;;;;;;4982089;28;20029;-90
2023/06/22 12:16:28;;;;;;;7.70;4.00;;;26.40;99.90;;;;;;4956910;28;20045;-91
2023/06/22 12:18:54;;;;;;;9.13;4.30;;;26.30;99.90;;;;;;4968196;28;20056;-90
2023/06/22 12:21:20;;;;;;;7.75;4.10;;;26.40;99.90;;;;;;4968644;28;20089;-90
2023/06/22 12:23:46;;;;;;;5.85;3.55;;;26.40;99.80;;;;;;4984415;28;20026;-92
2023/06/22 12:26:12;;;;;;;7.78;3.97;;;26.40;99.20;;;;;;4959843;28;20033;-90
2023/06/22 12:28:39;;;;;;;5.65;3.50;;;26.40;99.00;;;;;;4984554;28;20042;-89
2023/06/22 12:31:04;;;;;;;5.70;3.35;;;26.30;98.70;;;;;;4958612;28;20038;-90
2023/06/22 12:33:31;;;;;;;5.50;3.10;;;26.20;98.70;;;;;;4984973;28;20310;-90